createdAt,value
2022-09-06T00:07:06.995Z,10.10
2022-09-06T00:17:12.148Z,10.00
2022-09-06T00:27:15.972Z,10.20
2022-09-06T00:37:21.222Z,10.30
2022-09-06T00:47:27.411Z,10.40
2022-09-06T00:57:33.009Z,10.40
2022-09-06T01:08:04.300Z,10.20
2022-09-06T01:18:28.296Z,10.00
2022-09-06T01:28:37.589Z,9.80
2022-09-06T01:38:41.369Z,9.80
2022-09-06T01:49:10.206Z,9.60
2022-09-06T01:59:33.875Z,9.30
2022-09-06T02:09:42.700Z,9.10
2022-09-06T02:19:52.204Z,8.80
2022-09-06T02:29:57.210Z,8.50
2022-09-06T02:40:01.068Z,8.20
2022-09-06T02:50:08.337Z,8.00
2022-09-06T03:00:13.745Z,7.80
2022-09-06T03:10:19.867Z,7.60
2022-09-06T03:20:23.794Z,7.40
2022-09-06T03:30:29.078Z,7.40
2022-09-06T03:40:32.803Z,7.40
2022-09-06T03:50:38.027Z,7.40
2022-09-06T04:00:42.091Z,7.40
2022-09-06T04:10:47.308Z,7.30
2022-09-06T04:20:52.251Z,7.40
2022-09-06T04:31:04.268Z,7.60
2022-09-06T04:41:10.131Z,7.70
2022-09-06T04:51:15.330Z,7.90
2022-09-06T05:01:20.661Z,8.20
2022-09-06T05:11:27.494Z,8.50
2022-09-06T05:21:31.247Z,8.80
2022-09-06T05:31:37.759Z,9.00
2022-09-06T05:41:41.508Z,9.40
2022-09-06T05:51:51.884Z,9.80
2022-09-06T06:01:56.212Z,10.40
2022-09-06T06:12:01.404Z,11.30
2022-09-06T06:22:05.090Z,12.80
2022-09-06T06:32:10.056Z,15.00
2022-09-06T06:42:16.120Z,16.00
2022-09-06T06:52:30.150Z,17.80
2022-09-06T07:02:33.804Z,19.80
2022-09-06T07:12:38.643Z,21.90
2022-09-06T07:22:42.495Z,24.40
2022-09-06T07:32:47.392Z,26.60
2022-09-06T07:42:51.054Z,28.30
2022-09-06T07:53:15.043Z,29.50
2022-09-06T08:03:19.556Z,31.50
2022-09-06T08:13:24.668Z,32.50
2022-09-06T08:23:29.247Z,34.30
2022-09-06T08:33:33.987Z,35.80
2022-09-06T08:43:38.697Z,36.80
2022-09-06T08:53:47.388Z,36.80
2022-09-06T09:03:51.058Z,37.80
2022-09-06T09:14:03.187Z,40.00
2022-09-06T09:24:10.413Z,39.50
2022-09-06T09:34:30.014Z,40.70
2022-09-06T09:44:34.502Z,38.50
2022-09-06T09:54:42.154Z,44.70
2022-09-06T10:04:50.832Z,40.90
2022-09-06T10:14:55.906Z,32.80
2022-09-06T10:25:33.844Z,29.70
2022-09-06T10:35:40.037Z,30.00
2022-09-06T10:45:56.238Z,29.20
2022-09-06T10:56:07.905Z,31.80
2022-09-06T11:06:14.043Z,29.70
2022-09-06T11:16:24.487Z,28.30
2022-09-06T11:26:35.470Z,38.40
2022-09-06T11:36:48.337Z,43.10
2022-09-06T11:47:04.061Z,46.20
2022-09-06T11:57:16.865Z,42.60
2022-09-06T12:07:20.261Z,42.40
2022-09-06T12:17:25.979Z,44.50
2022-09-06T12:27:31.747Z,44.70
2022-09-06T12:37:39.167Z,43.70
2022-09-06T12:47:42.885Z,43.50
2022-09-06T12:57:53.769Z,40.00
2022-09-06T13:08:00.754Z,35.40
2022-09-06T13:18:27.413Z,31.60
2022-09-06T13:28:33.389Z,29.80
2022-09-06T13:38:42.540Z,28.10
2022-09-06T13:48:47.115Z,27.30
2022-09-06T13:58:51.885Z,26.00
2022-09-06T14:09:07.007Z,24.30
2022-09-06T14:19:13.265Z,23.40
2022-09-06T14:29:17.113Z,23.90
2022-09-06T14:39:22.087Z,23.60
2022-09-06T14:49:25.923Z,23.40
2022-09-06T14:59:31.218Z,23.10
2022-09-06T15:09:34.985Z,22.60
2022-09-06T15:19:40.177Z,22.70
2022-09-06T15:29:44.995Z,22.50
2022-09-06T15:39:50.022Z,21.50
2022-09-06T15:49:53.920Z,21.10
2022-09-06T15:59:58.927Z,20.80
2022-09-06T16:10:02.525Z,20.40
2022-09-06T16:20:08.610Z,19.40
2022-09-06T16:30:13.063Z,19.30
2022-09-06T16:40:18.067Z,18.70
2022-09-06T16:50:22.173Z,18.20
2022-09-06T17:00:27.544Z,17.60
2022-09-06T17:10:31.660Z,17.10
2022-09-06T17:20:37.082Z,16.60
2022-09-06T17:30:41.356Z,16.10
2022-09-06T17:40:46.609Z,15.80
2022-09-06T17:50:50.491Z,15.40
2022-09-06T18:00:56.051Z,15.20
2022-09-06T18:10:59.654Z,15.00
2022-09-06T18:21:07.276Z,14.80
2022-09-06T18:31:12.838Z,14.60
2022-09-06T18:41:35.593Z,14.40
2022-09-06T18:51:41.206Z,14.30
2022-09-06T19:01:46.608Z,14.10
2022-09-06T19:11:52.923Z,13.90
2022-09-06T19:21:58.672Z,13.70
2022-09-06T19:32:02.530Z,13.50
2022-09-06T19:42:08.409Z,13.20
2022-09-06T19:52:12.202Z,13.00
2022-09-06T20:02:17.397Z,12.90
2022-09-06T20:12:21.064Z,12.70
2022-09-06T20:22:26.582Z,12.60
2022-09-06T20:32:32.155Z,12.50
2022-09-06T20:42:42.326Z,12.30
2022-09-06T20:52:46.173Z,12.00
2022-09-06T21:02:51.303Z,11.80
2022-09-06T21:12:55.256Z,11.60
2022-09-06T21:23:00.453Z,11.50
2022-09-06T21:33:04.524Z,11.30
2022-09-06T21:43:09.403Z,11.20
2022-09-06T21:53:13.425Z,11.00
2022-09-06T22:03:18.461Z,11.00
2022-09-06T22:13:22.343Z,10.90
2022-09-06T22:23:27.652Z,10.90
2022-09-06T22:33:32.021Z,10.90
2022-09-06T22:43:37.550Z,10.90
2022-09-06T22:53:41.311Z,10.90
2022-09-06T23:03:46.722Z,10.80
2022-09-06T23:13:50.960Z,10.60
2022-09-06T23:23:57.853Z,10.50
2022-09-06T23:34:03.600Z,10.50
2022-09-06T23:44:08.984Z,10.40
2022-09-06T23:54:12.677Z,10.20
